Time;durP1;ratioP1;P1;durP2;ratioP2;P2;SDS_P1;SDS_P2;PMS_P1;PMS_P2;Temp;Humidity;BMP_temperature;BMP_pressure;BME280_temperature;BME280_humidity;BME280_pressure;Samples;Min_cycle;Max_cycle;Signal;HPM_P1;HPM_P2
2023/09/27 00:00:06;;;;;;;0.10;0.10;;;;;;;;;;5110055;28;20048;-58
2023/09/27 00:02:31;;;;;;;0.10;0.10;;;;;;;;;;5110041;28;20101;-58
2023/09/27 00:04:57;;;;;;;0.10;0.10;;;;;;;;;;5110737;28;20047;-58
2023/09/27 00:07:23;;;;;;;0.10;0.10;;;;;;;;;;5130791;28;20043;-58
2023/09/27 00:09:48;;;;;;;0.10;0.10;;;;;;;;;;5110033;28;20051;-58
2023/09/27 00:12:15;;;;;;;0.15;0.15;;;;;;;;;;5109465;28;20493;-58
2023/09/27 00:14:40;;;;;;;0.15;0.15;;;;;;;;;;5109158;28;20363;-58
2023/09/27 00:17:06;;;;;;;0.10;0.10;;;;;;;;;;5128884;28;20047;-58
2023/09/27 00:19:32;;;;;;;0.10;0.10;;;;;;;;;;5111354;28;20047;-58
2023/09/27 00:21:57;;;;;;;0.10;0.10;;;;;;;;;;5109689;28;20051;-58
2023/09/27 00:24:23;;;;;;;0.10;0.10;;;;;;;;;;5109015;28;20380;-58
2023/09/27 00:26:49;;;;;;;0.10;0.10;;;;;;;;;;5125952;28;20059;-58
2023/09/27 00:29:14;;;;;;;0.10;0.10;;;;;;;;;;5114497;28;20428;-58
2023/09/27 00:31:40;;;;;;;0.10;0.10;;;;;;;;;;5121039;28;20471;-58
2023/09/27 00:34:05;;;;;;;0.10;0.10;;;;;;;;;;5129424;28;20054;-58
2023/09/27 00:36:31;;;;;;;0.10;0.10;;;;;;;;;;5116129;28;20051;-58
2023/09/27 00:38:56;;;;;;;0.15;0.15;;;;;;;;;;5122076;28;20573;-58
2023/09/27 00:41:22;;;;;;;0.10;0.10;;;;;;;;;;5129544;28;20047;-58
2023/09/27 00:43:48;;;;;;;0.10;0.10;;;;;;;;;;5123056;28;20055;-58
2023/09/27 00:46:15;;;;;;;0.10;0.10;;;;;;;;;;5116951;28;20079;-58
2023/09/27 00:48:41;;;;;;;0.10;0.10;;;;;;;;;;5108516;28;20040;-58
2023/09/27 00:51:07;;;;;;;0.10;0.10;;;;;;;;;;5108396;28;20440;-58
2023/09/27 00:53:33;;;;;;;0.10;0.10;;;;;;;;;;5108651;28;20085;-58
2023/09/27 00:56:00;;;;;;;0.10;0.10;;;;;;;;;;5108621;28;20048;-58
2023/09/27 00:58:25;;;;;;;0.10;0.10;;;;;;;;;;5108719;28;20047;-58
2023/09/27 01:00:51;;;;;;;0.10;0.10;;;;;;;;;;5108061;28;20050;-58
2023/09/27 01:03:17;;;;;;;0.10;0.10;;;;;;;;;;5108914;28;20048;-58
2023/09/27 01:05:44;;;;;;;0.10;0.10;;;;;;;;;;5108093;28;20078;-58
2023/09/27 01:08:10;;;;;;;0.10;0.10;;;;;;;;;;5108494;27;20070;-58
2023/09/27 01:10:36;;;;;;;0.10;0.10;;;;;;;;;;5108626;28;20047;-58
2023/09/27 01:13:01;;;;;;;0.10;0.10;;;;;;;;;;5108201;28;20040;-58
2023/09/27 01:15:27;;;;;;;0.10;0.10;;;;;;;;;;5108318;28;20101;-58
2023/09/27 01:17:54;;;;;;;0.17;0.17;;;;;;;;;;5108477;28;20046;-58
2023/09/27 01:20:20;;;;;;;0.10;0.10;;;;;;;;;;5108470;28;20170;-58
2023/09/27 01:22:55;;;;;;;0.10;0.10;;;;;;;;;;5108254;28;20439;-58
2023/09/27 01:25:22;;;;;;;0.10;0.10;;;;;;;;;;5109901;28;20047;-58
2023/09/27 01:27:48;;;;;;;0.10;0.10;;;;;;;;;;5125632;28;20051;-58
2023/09/27 01:30:13;;;;;;;0.10;0.10;;;;;;;;;;5107786;28;20074;-58
2023/09/27 01:32:40;;;;;;;0.10;0.10;;;;;;;;;;5128629;28;20073;-58
2023/09/27 01:35:06;;;;;;;0.10;0.10;;;;;;;;;;5128466;28;20582;-58
2023/09/27 01:37:32;;;;;;;0.30;0.10;;;;;;;;;;5127954;28;20126;-58
2023/09/27 01:39:58;;;;;;;0.10;0.10;;;;;;;;;;5128443;28;20054;-58
2023/09/27 01:42:23;;;;;;;0.10;0.10;;;;;;;;;;5127531;27;20055;-58
2023/09/27 01:44:49;;;;;;;0.10;0.10;;;;;;;;;;5127855;28;20384;-58
2023/09/27 01:47:14;;;;;;;0.10;0.10;;;;;;;;;;5128153;28;20055;-58
2023/09/27 01:49:40;;;;;;;0.10;0.10;;;;;;;;;;5108922;28;20412;-57
2023/09/27 01:52:06;;;;;;;0.10;0.10;;;;;;;;;;5108505;28;20047;-58
2023/09/27 01:54:31;;;;;;;0.10;0.10;;;;;;;;;;5107950;28;20461;-58
2023/09/27 01:56:57;;;;;;;0.10;0.10;;;;;;;;;;5108262;28;20048;-58
2023/09/27 01:59:22;;;;;;;0.10;0.10;;;;;;;;;;5108159;28;20126;-58
2023/09/27 02:01:48;;;;;;;0.10;0.10;;;;;;;;;;5107989;28;20461;-58
2023/09/27 02:04:14;;;;;;;0.10;0.10;;;;;;;;;;5107514;28;20438;-58
2023/09/27 02:06:39;;;;;;;0.10;0.10;;;;;;;;;;5119740;28;20047;-58
2023/09/27 02:09:05;;;;;;;0.10;0.10;;;;;;;;;;5114385;27;20054;-58
2023/09/27 02:11:31;;;;;;;0.10;0.10;;;;;;;;;;5107621;28;20055;-58
2023/09/27 02:13:57;;;;;;;0.10;0.10;;;;;;;;;;5106943;28;20043;-58
2023/09/27 02:16:23;;;;;;;0.10;0.10;;;;;;;;;;5107541;28;20048;-58
2023/09/27 02:18:49;;;;;;;0.10;0.10;;;;;;;;;;5107434;28;20499;-58
2023/09/27 02:21:14;;;;;;;0.10;0.10;;;;;;;;;;5107310;28;20172;-58
2023/09/27 02:23:40;;;;;;;0.10;0.10;;;;;;;;;;5107571;28;20044;-58
2023/09/27 02:26:06;;;;;;;0.10;0.10;;;;;;;;;;5106489;28;20211;-58
2023/09/27 02:28:31;;;;;;;0.13;0.13;;;;;;;;;;5106457;28;20039;-58
2023/09/27 02:30:58;;;;;;;0.10;0.10;;;;;;;;;;5113490;28;20035;-57
2023/09/27 02:33:25;;;;;;;0.10;0.10;;;;;;;;;;5128390;28;20047;-58
2023/09/27 02:35:50;;;;;;;0.10;0.10;;;;;;;;;;5128283;28;20047;-58
2023/09/27 02:38:17;;;;;;;0.10;0.10;;;;;;;;;;5128281;28;20396;-58
2023/09/27 02:40:42;;;;;;;0.10;0.10;;;;;;;;;;5127649;28;20049;-58
2023/09/27 02:43:08;;;;;;;0.10;0.10;;;;;;;;;;5127744;28;20106;-58
2023/09/27 02:45:34;;;;;;;0.10;0.10;;;;;;;;;;5127819;28;20054;-58
2023/09/27 02:48:00;;;;;;;0.10;0.10;;;;;;;;;;5123585;28;20058;-58
2023/09/27 02:50:26;;;;;;;0.10;0.10;;;;;;;;;;5127886;27;20479;-58
2023/09/27 02:52:51;;;;;;;0.10;0.10;;;;;;;;;;5128259;28;20079;-58
2023/09/27 02:55:17;;;;;;;0.10;0.10;;;;;;;;;;5128312;28;20096;-58
2023/09/27 02:57:48;;;;;;;0.10;0.10;;;;;;;;;;5125591;28;20557;-59
2023/09/27 03:00:14;;;;;;;0.10;0.10;;;;;;;;;;5107917;28;20548;-54
2023/09/27 03:02:39;;;;;;;0.10;0.10;;;;;;;;;;5106971;28;20056;-55
2023/09/27 03:05:07;;;;;;;0.10;0.10;;;;;;;;;;5106668;28;20055;-55
2023/09/27 03:07:34;;;;;;;0.15;0.15;;;;;;;;;;5107386;27;20538;-55
2023/09/27 03:09:59;;;;;;;0.10;0.10;;;;;;;;;;5128046;28;20047;-55
2023/09/27 03:12:25;;;;;;;0.10;0.10;;;;;;;;;;5126426;28;20055;-55
2023/09/27 03:14:50;;;;;;;0.10;0.10;;;;;;;;;;5127114;28;20043;-55
2023/09/27 03:17:16;;;;;;;0.10;0.10;;;;;;;;;;5126947;28;20070;-55
2023/09/27 03:19:42;;;;;;;0.10;0.10;;;;;;;;;;5107574;28;20381;-55
2023/09/27 03:22:07;;;;;;;0.10;0.10;;;;;;;;;;5106037;28;20052;-55
2023/09/27 03:24:34;;;;;;;0.10;0.10;;;;;;;;;;5106104;28;20428;-55
2023/09/27 03:27:00;;;;;;;0.20;0.20;;;;;;;;;;5119036;28;20078;-55
2023/09/27 03:29:25;;;;;;;0.20;0.20;;;;;;;;;;5110114;28;20086;-55
2023/09/27 03:31:51;;;;;;;0.10;0.10;;;;;;;;;;5119817;28;20055;-55
2023/09/27 03:34:17;;;;;;;0.10;0.10;;;;;;;;;;5127200;28;20058;-55
2023/09/27 03:36:44;;;;;;;0.10;0.10;;;;;;;;;;5117598;28;20454;-55
2023/09/27 03:39:09;;;;;;;0.10;0.10;;;;;;;;;;5121259;28;20062;-55
2023/09/27 03:41:35;;;;;;;0.10;0.10;;;;;;;;;;5126607;28;20130;-55
2023/09/27 03:44:02;;;;;;;0.10;0.10;;;;;;;;;;5125836;28;20488;-55
2023/09/27 03:46:29;;;;;;;0.10;0.10;;;;;;;;;;5126781;28;20456;-55
2023/09/27 03:48:55;;;;;;;0.28;0.28;;;;;;;;;;5112882;28;20480;-55
2023/09/27 03:51:24;;;;;;;0.10;0.10;;;;;;;;;;5106397;28;20055;-55
2023/09/27 03:53:50;;;;;;;0.10;0.10;;;;;;;;;;5106330;28;20512;-55
2023/09/27 03:56:15;;;;;;;0.10;0.10;;;;;;;;;;5111468;28;20039;-55
2023/09/27 03:58:41;;;;;;;0.10;0.10;;;;;;;;;;5116525;28;20051;-55
2023/09/27 04:01:06;;;;;;;0.10;0.10;;;;;;;;;;5106490;28;20491;-54
2023/09/27 04:03:32;;;;;;;0.10;0.10;;;;;;;;;;5106018;28;20059;-55
2023/09/27 04:05:58;;;;;;;0.10;0.10;;;;;;;;;;5105874;28;20043;-55
2023/09/27 04:08:24;;;;;;;0.10;0.10;;;;;;;;;;5106606;28;20552;-55
2023/09/27 04:10:49;;;;;;;0.10;0.10;;;;;;;;;;5106246;28;20417;-55
2023/09/27 04:13:15;;;;;;;0.10;0.10;;;;;;;;;;5106118;28;20477;-55
2023/09/27 04:15:40;;;;;;;0.10;0.10;;;;;;;;;;5106028;28;20457;-55
2023/09/27 04:18:06;;;;;;;0.10;0.10;;;;;;;;;;5106040;28;20047;-55
2023/09/27 04:20:32;;;;;;;0.10;0.10;;;;;;;;;;5106359;28;20071;-55
2023/09/27 04:23:03;;;;;;;0.10;0.10;;;;;;;;;;5105950;28;20055;-55
2023/09/27 04:25:28;;;;;;;0.10;0.10;;;;;;;;;;5105771;28;20048;-55
2023/09/27 04:27:54;;;;;;;0.10;0.10;;;;;;;;;;5106013;28;20062;-55
2023/09/27 04:30:21;;;;;;;0.10;0.10;;;;;;;;;;5106437;28;20048;-55
2023/09/27 04:32:50;;;;;;;0.10;0.10;;;;;;;;;;5126418;27;20043;-55
2023/09/27 04:35:16;;;;;;;0.10;0.10;;;;;;;;;;5110422;28;20427;-55
2023/09/27 04:37:41;;;;;;;0.10;0.10;;;;;;;;;;5115908;28;20544;-55
2023/09/27 04:40:10;;;;;;;0.10;0.10;;;;;;;;;;5129000;27;20054;-46
2023/09/27 04:42:36;;;;;;;0.10;0.10;;;;;;;;;;5128986;28;20096;-55
2023/09/27 04:45:02;;;;;;;0.10;0.10;;;;;;;;;;5128096;28;20112;-55
2023/09/27 04:47:27;;;;;;;0.10;0.10;;;;;;;;;;5128474;28;20506;-55
2023/09/27 04:49:54;;;;;;;0.10;0.10;;;;;;;;;;5108131;28;20043;-55
2023/09/27 04:52:20;;;;;;;0.10;0.10;;;;;;;;;;5128373;28;20403;-55
2023/09/27 04:54:46;;;;;;;0.10;0.10;;;;;;;;;;5128827;28;20494;-56
2023/09/27 04:57:12;;;;;;;0.10;0.10;;;;;;;;;;5116825;28;20051;-55
2023/09/27 04:59:37;;;;;;;0.10;0.10;;;;;;;;;;5118013;28;20051;-55
2023/09/27 05:02:03;;;;;;;0.10;0.10;;;;;;;;;;5117315;27;20039;-55
2023/09/27 05:04:29;;;;;;;0.10;0.10;;;;;;;;;;5117468;28;20051;-55
2023/09/27 05:06:54;;;;;;;0.20;0.20;;;;;;;;;;5116730;28;20643;-55
2023/09/27 05:09:20;;;;;;;0.10;0.10;;;;;;;;;;5118661;28;20081;-55
2023/09/27 05:11:46;;;;;;;0.10;0.10;;;;;;;;;;5115806;28;20051;-55
2023/09/27 05:14:12;;;;;;;0.20;0.20;;;;;;;;;;5116361;28;20054;-56
2023/09/27 05:16:38;;;;;;;0.10;0.10;;;;;;;;;;5123004;28;20087;-55
2023/09/27 05:19:03;;;;;;;0.10;0.10;;;;;;;;;;5119396;28;20089;-56
2023/09/27 05:21:29;;;;;;;0.10;0.10;;;;;;;;;;5123689;28;20146;-55
2023/09/27 05:23:55;;;;;;;0.20;0.20;;;;;;;;;;5114582;28;20048;-56
2023/09/27 05:26:21;;;;;;;0.10;0.10;;;;;;;;;;5122296;28;20055;-55
2023/09/27 05:28:46;;;;;;;0.10;0.10;;;;;;;;;;5110739;28;20135;-55
2023/09/27 05:31:12;;;;;;;0.10;0.10;;;;;;;;;;5127277;28;20047;-55
2023/09/27 05:33:37;;;;;;;0.15;0.15;;;;;;;;;;5116590;28;20048;-55
2023/09/27 05:36:03;;;;;;;0.10;0.10;;;;;;;;;;5121945;28;20547;-55
2023/09/27 05:38:29;;;;;;;0.10;0.10;;;;;;;;;;5123330;28;20054;-55
2023/09/27 05:40:54;;;;;;;0.10;0.10;;;;;;;;;;5127522;28;20043;-55
2023/09/27 05:43:20;;;;;;;0.10;0.10;;;;;;;;;;5121511;27;20244;-55
2023/09/27 05:45:45;;;;;;;0.10;0.10;;;;;;;;;;5121811;28;20069;-56
2023/09/27 05:48:14;;;;;;;0.20;0.20;;;;;;;;;;5115791;28;20458;-55
2023/09/27 05:50:44;;;;;;;0.20;0.20;;;;;;;;;;5110274;28;20043;-56
2023/09/27 05:53:11;;;;;;;0.20;0.20;;;;;;;;;;5116986;27;20078;-55
2023/09/27 05:55:37;;;;;;;0.20;0.20;;;;;;;;;;5109349;27;20078;-56
2023/09/27 05:58:03;;;;;;;0.20;0.20;;;;;;;;;;5110509;28;20518;-55
2023/09/27 06:00:37;;;;;;;0.10;0.10;;;;;;;;;;5119980;28;20388;-55
2023/09/27 06:03:04;;;;;;;0.73;0.30;;;;;;;;;;5105146;27;20043;-55
2023/09/27 06:05:29;;;;;;;0.10;0.10;;;;;;;;;;5111572;28;20253;-55
2023/09/27 06:07:55;;;;;;;0.20;0.20;;;;;;;;;;5107069;28;20043;-55
2023/09/27 06:10:22;;;;;;;0.10;0.10;;;;;;;;;;5120691;28;20055;-55
2023/09/27 06:12:47;;;;;;;0.10;0.10;;;;;;;;;;5103889;28;20069;-55
2023/09/27 06:15:14;;;;;;;0.10;0.10;;;;;;;;;;5116604;27;20449;-55
2023/09/27 06:17:40;;;;;;;0.10;0.10;;;;;;;;;;5119696;28;20046;-55
2023/09/27 06:20:11;;;;;;;0.10;0.10;;;;;;;;;;5127679;27;20164;-55
2023/09/27 06:22:39;;;;;;;0.10;0.10;;;;;;;;;;5123930;28;20492;-55
2023/09/27 06:25:05;;;;;;;0.10;0.10;;;;;;;;;;5125298;28;20473;-55
2023/09/27 06:27:31;;;;;;;0.13;0.13;;;;;;;;;;5118646;28;20051;-55
2023/09/27 06:29:56;;;;;;;0.10;0.10;;;;;;;;;;5115721;28;20702;-55
2023/09/27 06:32:22;;;;;;;0.10;0.10;;;;;;;;;;5106554;28;20069;-55
2023/09/27 06:34:49;;;;;;;0.20;0.20;;;;;;;;;;5118509;28;20039;-56
2023/09/27 06:37:14;;;;;;;0.10;0.10;;;;;;;;;;5114660;27;20883;-55
2023/09/27 06:39:41;;;;;;;0.10;0.10;;;;;;;;;;5123248;28;20083;-55
2023/09/27 06:42:06;;;;;;;0.10;0.10;;;;;;;;;;5125117;27;20117;-55
2023/09/27 06:44:33;;;;;;;0.10;0.10;;;;;;;;;;5110701;27;20411;-55
2023/09/27 06:46:59;;;;;;;0.10;0.10;;;;;;;;;;5114962;27;20047;-55
2023/09/27 06:49:25;;;;;;;0.10;0.10;;;;;;;;;;5114513;27;20130;-55
2023/09/27 06:51:51;;;;;;;0.20;0.20;;;;;;;;;;5123107;28;20047;-55
2023/09/27 06:54:16;;;;;;;0.10;0.10;;;;;;;;;;5116971;28;20431;-55
2023/09/27 06:56:42;;;;;;;0.10;0.10;;;;;;;;;;5106491;28;20055;-55
2023/09/27 06:59:08;;;;;;;0.10;0.10;;;;;;;;;;5113122;28;20683;-55
2023/09/27 07:01:34;;;;;;;0.10;0.10;;;;;;;;;;5114456;28;20032;-55
2023/09/27 07:04:03;;;;;;;0.10;0.10;;;;;;;;;;5117292;27;20380;-55
2023/09/27 07:06:29;;;;;;;0.10;0.10;;;;;;;;;;5104825;28;20092;-55
2023/09/27 07:08:57;;;;;;;0.20;0.20;;;;;;;;;;5108884;28;20047;-55
2023/09/27 07:11:23;;;;;;;0.15;0.15;;;;;;;;;;5112746;28;20039;-55
2023/09/27 07:13:49;;;;;;;0.10;0.10;;;;;;;;;;5108286;28;20411;-55
2023/09/27 07:16:20;;;;;;;0.10;0.10;;;;;;;;;;5118284;28;20657;-54
2023/09/27 07:18:45;;;;;;;0.10;0.10;;;;;;;;;;5113948;28;20130;-55
2023/09/27 07:21:11;;;;;;;0.10;0.10;;;;;;;;;;5120701;28;20177;-55
2023/09/27 07:23:37;;;;;;;0.10;0.10;;;;;;;;;;5113400;28;20059;-54
2023/09/27 07:26:04;;;;;;;0.10;0.10;;;;;;;;;;5108947;27;20058;-54
2023/09/27 07:28:31;;;;;;;0.10;0.10;;;;;;;;;;5115585;27;20075;-55
2023/09/27 07:30:57;;;;;;;0.10;0.10;;;;;;;;;;5108670;28;20709;-55
2023/09/27 07:33:24;;;;;;;0.10;0.10;;;;;;;;;;5116948;27;20437;-55
2023/09/27 07:35:52;;;;;;;0.10;0.10;;;;;;;;;;5119587;28;20135;-55
2023/09/27 07:38:17;;;;;;;0.10;0.10;;;;;;;;;;5111036;28;20054;-55
2023/09/27 07:40:47;;;;;;;0.10;0.10;;;;;;;;;;5122576;28;20052;-55
2023/09/27 07:43:12;;;;;;;0.10;0.10;;;;;;;;;;5110518;27;20088;-55
2023/09/27 07:45:41;;;;;;;0.10;0.10;;;;;;;;;;5121309;27;20058;-55
2023/09/27 07:48:07;;;;;;;0.10;0.10;;;;;;;;;;5115886;28;20043;-55
2023/09/27 07:50:34;;;;;;;0.10;0.10;;;;;;;;;;5114676;28;20126;-55
2023/09/27 07:53:00;;;;;;;0.10;0.10;;;;;;;;;;5118834;28;20261;-55
2023/09/27 07:55:26;;;;;;;0.10;0.10;;;;;;;;;;5118589;28;20047;-55
2023/09/27 07:57:52;;;;;;;0.15;0.15;;;;;;;;;;5119856;28;20043;-55
2023/09/27 08:00:19;;;;;;;0.10;0.10;;;;;;;;;;5111977;27;20505;-55
2023/09/27 08:02:46;;;;;;;0.10;0.10;;;;;;;;;;5114420;27;20043;-55
2023/09/27 08:05:14;;;;;;;0.10;0.10;;;;;;;;;;5116349;28;20649;-55
2023/09/27 08:07:40;;;;;;;0.10;0.10;;;;;;;;;;5109880;27;20556;-55
2023/09/27 08:10:06;;;;;;;0.10;0.10;;;;;;;;;;5115858;27;20070;-55
2023/09/27 08:12:41;;;;;;;0.10;0.10;;;;;;;;;;5112630;28;20082;-55
2023/09/27 08:15:06;;;;;;;0.10;0.10;;;;;;;;;;5118807;28;20051;-55
2023/09/27 08:17:32;;;;;;;0.10;0.10;;;;;;;;;;5094878;28;20066;-55
2023/09/27 08:19:59;;;;;;;0.10;0.10;;;;;;;;;;5104273;28;20126;-55
2023/09/27 08:22:24;;;;;;;0.10;0.10;;;;;;;;;;5109012;28;20487;-55
2023/09/27 08:24:50;;;;;;;0.20;0.20;;;;;;;;;;5125184;27;20095;-55
2023/09/27 08:27:16;;;;;;;0.10;0.10;;;;;;;;;;5117172;27;20324;-55
2023/09/27 08:29:42;;;;;;;0.10;0.10;;;;;;;;;;5111317;28;20097;-55
2023/09/27 08:32:08;;;;;;;0.13;0.13;;;;;;;;;;5100717;28;20167;-55
2023/09/27 08:34:34;;;;;;;0.10;0.10;;;;;;;;;;5110621;28;20288;-53
2023/09/27 08:37:00;;;;;;;0.15;0.15;;;;;;;;;;5106091;27;21364;-56
2023/09/27 08:39:26;;;;;;;0.30;0.30;;;;;;;;;;5110178;28;20192;-56
2023/09/27 08:41:54;;;;;;;0.10;0.10;;;;;;;;;;5115036;27;20562;-57
2023/09/27 08:44:20;;;;;;;0.10;0.10;;;;;;;;;;5113165;28;20055;-56
2023/09/27 08:46:46;;;;;;;0.10;0.10;;;;;;;;;;5115164;28;20055;-56
2023/09/27 08:49:13;;;;;;;0.10;0.10;;;;;;;;;;5115564;28;20075;-56
2023/09/27 08:51:41;;;;;;;0.10;0.10;;;;;;;;;;5123278;28;20664;-56
2023/09/27 08:54:07;;;;;;;0.10;0.10;;;;;;;;;;5114689;28;20051;-56
2023/09/27 08:56:33;;;;;;;0.10;0.10;;;;;;;;;;5106439;28;20486;-56
2023/09/27 08:59:00;;;;;;;0.10;0.10;;;;;;;;;;5116341;28;20050;-56
2023/09/27 09:01:25;;;;;;;0.10;0.10;;;;;;;;;;5122188;28;20475;-56
2023/09/27 09:03:52;;;;;;;0.10;0.10;;;;;;;;;;5119754;28;20054;-56
2023/09/27 09:06:18;;;;;;;0.10;0.10;;;;;;;;;;5121352;28;20059;-55
2023/09/27 09:08:46;;;;;;;0.20;0.20;;;;;;;;;;5119710;28;20585;-55
2023/09/27 09:11:16;;;;;;;0.10;0.10;;;;;;;;;;5116324;28;20506;-55
2023/09/27 09:13:59;;;;;;;0.10;0.10;;;;;;;;;;5122084;28;20521;-55
2023/09/27 09:16:25;;;;;;;0.10;0.10;;;;;;;;;;5114085;28;20074;-55
2023/09/27 09:18:52;;;;;;;0.15;0.15;;;;;;;;;;5124918;28;20047;-55
2023/09/27 09:21:21;;;;;;;0.10;0.10;;;;;;;;;;5123448;27;20488;-55
2023/09/27 09:23:49;;;;;;;0.10;0.10;;;;;;;;;;5115890;27;20047;-55
2023/09/27 09:26:30;;;;;;;0.10;0.10;;;;;;;;;;5120791;27;20078;-55
2023/09/27 09:28:59;;;;;;;0.10;0.10;;;;;;;;;;5109574;28;20043;-55
2023/09/27 09:31:26;;;;;;;0.10;0.10;;;;;;;;;;5114593;28;20070;-55
2023/09/27 09:34:08;;;;;;;0.10;0.10;;;;;;;;;;5122822;28;20503;-55
2023/09/27 09:36:34;;;;;;;0.10;0.10;;;;;;;;;;5119391;28;20050;-54
2023/09/27 09:39:05;;;;;;;0.10;0.10;;;;;;;;;;5118041;27;20039;-55
2023/09/27 09:41:42;;;;;;;0.10;0.10;;;;;;;;;;5105321;27;20046;-55
2023/09/27 09:44:16;;;;;;;0.10;0.10;;;;;;;;;;5116887;28;20047;-55
2023/09/27 09:46:42;;;;;;;0.15;0.15;;;;;;;;;;5103975;28;20047;-55
2023/09/27 09:49:08;;;;;;;0.10;0.10;;;;;;;;;;5106569;27;20116;-55
2023/09/27 09:51:34;;;;;;;0.10;0.10;;;;;;;;;;5121100;28;20123;-55
2023/09/27 09:54:01;;;;;;;0.20;0.20;;;;;;;;;;5111670;27;20312;-55
2023/09/27 09:56:26;;;;;;;0.15;0.15;;;;;;;;;;5117869;27;20112;-55
2023/09/27 09:59:04;;;;;;;0.10;0.10;;;;;;;;;;5116856;28;20047;-58
2023/09/27 10:01:31;;;;;;;0.10;0.10;;;;;;;;;;5121612;27;20050;-55
2023/09/27 10:04:01;;;;;;;0.10;0.10;;;;;;;;;;5117959;28;20090;-55
2023/09/27 10:06:27;;;;;;;0.10;0.10;;;;;;;;;;5120327;28;20043;-55
2023/09/27 10:09:13;;;;;;;0.10;0.10;;;;;;;;;;5102961;28;20047;-55
2023/09/27 10:11:39;;;;;;;0.10;0.10;;;;;;;;;;5123459;28;20071;-55
2023/09/27 10:14:05;;;;;;;0.10;0.10;;;;;;;;;;5119128;28;20505;-55
2023/09/27 10:16:31;;;;;;;0.10;0.10;;;;;;;;;;5118122;28;20059;-55
2023/09/27 10:19:00;;;;;;;0.30;0.30;;;;;;;;;;5119353;28;20459;-55
2023/09/27 10:21:26;;;;;;;0.10;0.10;;;;;;;;;;5118755;28;20483;-58
2023/09/27 10:29:04;;;;;;;0.10;0.10;;;;;;;;;;5154742;27;20494;-54
2023/09/27 10:31:30;;;;;;;0.10;0.10;;;;;;;;;;5134540;27;20051;-54
2023/09/27 10:33:56;;;;;;;0.10;0.10;;;;;;;;;;5136762;27;20040;-55
2023/09/27 10:38:59;;;;;;;0.20;0.20;;;;;;;;;;5150511;27;20208;-55
2023/09/27 10:41:24;;;;;;;;;;;;;;;;;;5132591;27;20042;-54
2023/09/27 10:43:50;;;;;;;0.10;0.10;;;;;;;;;;5126554;27;20064;-54
2023/09/27 10:46:16;;;;;;;0.10;0.10;;;;;;;;;;5121897;27;20043;-55
2023/09/27 10:48:43;;;;;;;0.10;0.10;;;;;;;;;;5135821;27;20134;-55
2023/09/27 10:51:08;;;;;;;0.20;0.20;;;;;;;;;;5126480;27;20050;-55
2023/09/27 10:53:34;;;;;;;0.10;0.10;;;;;;;;;;5144200;27;20061;-55
2023/09/27 10:56:00;;;;;;;0.10;0.10;;;;;;;;;;5148678;27;20104;-55
2023/09/27 10:58:25;;;;;;;0.15;0.15;;;;;;;;;;5140051;27;20047;-55
2023/09/27 11:00:55;;;;;;;0.10;0.10;;;;;;;;;;5134191;27;20043;-55
2023/09/27 11:03:21;;;;;;;0.10;0.10;;;;;;;;;;5140591;27;20610;-55
2023/09/27 11:05:47;;;;;;;0.10;0.10;;;;;;;;;;5126563;27;20476;-55
2023/09/27 11:08:22;;;;;;;0.10;0.10;;;;;;;;;;5134747;27;20146;-55
2023/09/27 11:10:48;;;;;;;0.10;0.10;;;;;;;;;;5130043;27;20169;-55
2023/09/27 11:13:14;;;;;;;0.10;0.10;;;;;;;;;;5132574;27;20051;-55
2023/09/27 11:15:41;;;;;;;0.20;0.20;;;;;;;;;;5136899;27;20055;-55
2023/09/27 11:18:07;;;;;;;0.15;0.15;;;;;;;;;;5134085;27;20047;-55
2023/09/27 11:20:34;;;;;;;0.10;0.10;;;;;;;;;;5136681;27;20430;-55
2023/09/27 11:23:02;;;;;;;0.10;0.10;;;;;;;;;;5132457;27;20576;-55
2023/09/27 11:25:28;;;;;;;0.10;0.10;;;;;;;;;;5134197;27;20491;-55
2023/09/27 11:27:54;;;;;;;0.10;0.10;;;;;;;;;;5130376;27;20788;-55
2023/09/27 11:30:23;;;;;;;0.10;0.10;;;;;;;;;;5130930;27;20043;-55
2023/09/27 11:32:50;;;;;;;0.10;0.10;;;;;;;;;;5117779;27;20245;-55
2023/09/27 11:35:18;;;;;;;0.10;0.10;;;;;;;;;;5120604;27;20039;-55
2023/09/27 11:37:44;;;;;;;0.10;0.10;;;;;;;;;;5130680;27;20162;-55
2023/09/27 11:40:10;;;;;;;0.20;0.20;;;;;;;;;;5129418;27;20049;-55
2023/09/27 11:42:35;;;;;;;0.10;0.10;;;;;;;;;;5129949;27;20487;-55
2023/09/27 11:45:04;;;;;;;0.10;0.10;;;;;;;;;;5138903;27;20039;-55
2023/09/27 11:47:30;;;;;;;0.10;0.10;;;;;;;;;;5140400;27;20123;-55
2023/09/27 11:49:56;;;;;;;0.20;0.20;;;;;;;;;;5124268;27;20141;-55
2023/09/27 11:52:21;;;;;;;0.10;0.10;;;;;;;;;;5130665;27;20410;-55
2023/09/27 11:54:47;;;;;;;0.10;0.10;;;;;;;;;;5122668;27;20466;-55
2023/09/27 11:57:12;;;;;;;0.10;0.10;;;;;;;;;;5120775;27;20051;-58
2023/09/27 11:59:38;;;;;;;0.10;0.10;;;;;;;;;;5116788;27;20096;-58
2023/09/27 12:02:04;;;;;;;0.10;0.10;;;;;;;;;;5128277;27;20606;-57
2023/09/27 12:04:41;;;;;;;;;;;;;;;;;;5117788;27;20051;-57
2023/09/27 12:07:07;;;;;;;0.10;0.10;;;;;;;;;;5120017;28;20014;-58
2023/09/27 12:09:33;;;;;;;0.10;0.10;;;;;;;;;;5115219;27;20104;-58
2023/09/27 12:11:59;;;;;;;0.10;0.10;;;;;;;;;;5117336;27;20382;-53
2023/09/27 12:14:24;;;;;;;0.20;0.20;;;;;;;;;;5121829;28;20470;-58
2023/09/27 12:16:50;;;;;;;0.10;0.10;;;;;;;;;;5123362;28;20051;-58
2023/09/27 12:19:15;;;;;;;0.10;0.10;;;;;;;;;;5122127;28;20121;-57
2023/09/27 12:21:41;;;;;;;0.10;0.10;;;;;;;;;;5123495;27;21253;-58
2023/09/27 12:24:07;;;;;;;0.10;0.10;;;;;;;;;;5123536;27;20166;-58
2023/09/27 12:26:33;;;;;;;0.10;0.10;;;;;;;;;;5122663;27;20039;-58
2023/09/27 12:28:59;;;;;;;0.10;0.10;;;;;;;;;;5119946;28;20236;-58
2023/09/27 12:31:24;;;;;;;0.10;0.10;;;;;;;;;;5129664;27;20501;-58
2023/09/27 12:33:50;;;;;;;0.10;0.10;;;;;;;;;;5120057;27;20051;-58
2023/09/27 12:36:15;;;;;;;0.47;0.30;;;;;;;;;;5123791;27;20089;-59
2023/09/27 12:38:42;;;;;;;0.10;0.10;;;;;;;;;;5121325;27;20084;-58
2023/09/27 12:41:08;;;;;;;0.10;0.10;;;;;;;;;;5122271;27;20051;-58
2023/09/27 12:43:33;;;;;;;0.10;0.10;;;;;;;;;;5126516;27;20501;-58
2023/09/27 12:46:01;;;;;;;0.10;0.10;;;;;;;;;;5125072;27;20065;-58
2023/09/27 12:48:27;;;;;;;0.10;0.10;;;;;;;;;;5125422;27;20396;-58
2023/09/27 12:50:52;;;;;;;0.10;0.10;;;;;;;;;;5122142;28;20142;-58
2023/09/27 12:53:18;;;;;;;0.10;0.10;;;;;;;;;;5119128;28;20168;-58
2023/09/27 12:55:44;;;;;;;0.10;0.10;;;;;;;;;;5126008;27;20039;-57
2023/09/27 12:58:11;;;;;;;0.10;0.10;;;;;;;;;;5116246;28;20043;-58
2023/09/27 13:00:37;;;;;;;0.10;0.10;;;;;;;;;;5128932;27;20042;-58
2023/09/27 13:03:03;;;;;;;0.10;0.10;;;;;;;;;;5130951;27;20039;-57
2023/09/27 13:05:29;;;;;;;0.10;0.10;;;;;;;;;;5117747;27;20043;-57
2023/09/27 13:07:54;;;;;;;0.10;0.10;;;;;;;;;;5127140;28;20069;-57
2023/09/27 13:10:20;;;;;;;0.10;0.10;;;;;;;;;;5125881;27;20138;-57
2023/09/27 13:12:47;;;;;;;0.20;0.20;;;;;;;;;;5127009;28;20047;-58
2023/09/27 13:15:12;;;;;;;0.10;0.10;;;;;;;;;;5126360;28;20047;-58
2023/09/27 13:17:38;;;;;;;0.10;0.10;;;;;;;;;;5127791;28;20053;-57
2023/09/27 13:20:09;;;;;;;0.10;0.10;;;;;;;;;;5127812;28;20383;-57
2023/09/27 13:22:35;;;;;;;0.10;0.10;;;;;;;;;;5127009;28;20472;-57
2023/09/27 13:25:00;;;;;;;0.10;0.10;;;;;;;;;;5126066;28;20055;-57
2023/09/27 13:27:26;;;;;;;0.38;0.30;;;;;;;;;;5125734;28;20051;-57
2023/09/27 13:29:52;;;;;;;0.10;0.10;;;;;;;;;;5119306;28;20518;-58
2023/09/27 13:32:18;;;;;;;0.10;0.10;;;;;;;;;;5118936;28;20043;-58
2023/09/27 13:34:44;;;;;;;0.10;0.10;;;;;;;;;;5127257;28;20062;-57
2023/09/27 13:37:10;;;;;;;0.10;0.10;;;;;;;;;;5127470;28;20047;-57
2023/09/27 13:39:35;;;;;;;0.10;0.10;;;;;;;;;;5127346;28;20047;-58
2023/09/27 13:42:01;;;;;;;0.10;0.10;;;;;;;;;;5127385;28;20055;-58
2023/09/27 13:44:26;;;;;;;0.10;0.10;;;;;;;;;;5127368;28;20047;-57
2023/09/27 13:46:52;;;;;;;0.10;0.10;;;;;;;;;;5127306;28;20055;-57
2023/09/27 13:49:17;;;;;;;0.20;0.15;;;;;;;;;;5126694;28;20043;-57
2023/09/27 13:51:43;;;;;;;0.10;0.10;;;;;;;;;;5127582;28;20051;-57
2023/09/27 13:54:09;;;;;;;0.20;0.20;;;;;;;;;;5127408;28;20411;-57
2023/09/27 13:56:36;;;;;;;0.10;0.10;;;;;;;;;;5128047;28;20484;-57
2023/09/27 13:59:03;;;;;;;0.10;0.10;;;;;;;;;;5127319;28;20062;-57
2023/09/27 14:01:30;;;;;;;0.10;0.10;;;;;;;;;;5127264;27;20039;-58
2023/09/27 14:03:58;;;;;;;0.10;0.10;;;;;;;;;;5127441;28;20047;-57
2023/09/27 14:06:24;;;;;;;;;;;;;;;;;;5128223;28;20051;-57
2023/09/27 14:08:49;;;;;;;0.10;0.10;;;;;;;;;;5126785;28;19968;-54
2023/09/27 14:11:15;;;;;;;0.10;0.10;;;;;;;;;;5147505;27;20054;-54
2023/09/27 14:13:41;;;;;;;0.10;0.10;;;;;;;;;;5134624;27;20055;-54
2023/09/27 14:16:10;;;;;;;0.10;0.10;;;;;;;;;;5127221;28;20513;-55
2023/09/27 14:18:36;;;;;;;0.10;0.10;;;;;;;;;;5125957;28;20055;-55
2023/09/27 14:21:02;;;;;;;0.10;0.10;;;;;;;;;;5127673;27;20039;-54
2023/09/27 14:23:28;;;;;;;0.10;0.10;;;;;;;;;;5126421;28;20556;-54
2023/09/27 14:25:53;;;;;;;0.20;0.20;;;;;;;;;;5126680;28;20043;-54
2023/09/27 14:28:19;;;;;;;0.10;0.10;;;;;;;;;;5126837;28;20526;-55
2023/09/27 14:30:44;;;;;;;0.20;0.20;;;;;;;;;;5126417;28;20051;-55
2023/09/27 14:33:10;;;;;;;0.10;0.10;;;;;;;;;;5127144;28;20083;-54
2023/09/27 14:35:36;;;;;;;0.10;0.10;;;;;;;;;;5126401;28;20055;-54
2023/09/27 14:38:05;;;;;;;0.10;0.10;;;;;;;;;;5126948;28;20066;-54
2023/09/27 14:40:32;;;;;;;0.10;0.10;;;;;;;;;;5126698;28;20067;-55
2023/09/27 14:42:57;;;;;;;0.10;0.10;;;;;;;;;;5126417;28;20043;-54
2023/09/27 14:45:23;;;;;;;0.10;0.10;;;;;;;;;;5126747;28;20051;-55